sensor_id;sensor_type;location;lat;lon;timestamp;temperature;humidity
612;DHT22;293;53.888;11.464;2023-04-30T00:00:09;6.90;99.90
612;DHT22;293;53.888;11.464;2023-04-30T00:02:36;6.90;99.90
612;DHT22;293;53.888;11.464;2023-04-30T00:05:04;6.90;99.90
612;DHT22;293;53.888;11.464;2023-04-30T00:07:30;7.00;99.90
612;DHT22;293;53.888;11.464;2023-04-30T00:09:58;7.00;99.90
612;DHT22;293;53.888;11.464;2023-04-30T00:12:25;6.90;99.90
612;DHT22;293;53.888;11.464;2023-04-30T00:14:51;6.90;99.90
612;DHT22;293;53.888;11.464;2023-04-30T00:17:22;6.90;99.90
612;DHT22;293;53.888;11.464;2023-04-30T00:19:49;6.90;99.90
612;DHT22;293;53.888;11.464;2023-04-30T00:22:16;6.90;99.90
612;DHT22;293;53.888;11.464;2023-04-30T00:24:43;6.90;99.90
612;DHT22;293;53.888;11.464;2023-04-30T00:27:10;6.90;99.90
612;DHT22;293;53.888;11.464;2023-04-30T00:29:37;6.90;99.90
612;DHT22;293;53.888;11.464;2023-04-30T00:32:04;6.90;99.90
612;DHT22;293;53.888;11.464;2023-04-30T00:34:32;7.00;99.90
612;DHT22;293;53.888;11.464;2023-04-30T00:36:59;7.00;99.90
612;DHT22;293;53.888;11.464;2023-04-30T00:39:26;7.00;99.90
612;DHT22;293;53.888;11.464;2023-04-30T00:41:53;6.90;99.90
612;DHT22;293;53.888;11.464;2023-04-30T00:44:20;6.90;99.90
612;DHT22;293;53.888;11.464;2023-04-30T00:46:47;6.80;99.90
612;DHT22;293;53.888;11.464;2023-04-30T00:49:13;6.90;99.90
612;DHT22;293;53.888;11.464;2023-04-30T00:51:42;6.80;99.90
612;DHT22;293;53.888;11.464;2023-04-30T00:54:10;6.90;99.90
612;DHT22;293;53.888;11.464;2023-04-30T00:56:37;6.90;99.90
612;DHT22;293;53.888;11.464;2023-04-30T00:59:04;6.90;99.90
612;DHT22;293;53.888;11.464;2023-04-30T01:01:31;6.90;99.90
612;DHT22;293;53.888;11.464;2023-04-30T01:03:58;6.90;99.90
612;DHT22;293;53.888;11.464;2023-04-30T01:06:26;7.00;99.90
612;DHT22;293;53.888;11.464;2023-04-30T01:08:54;7.00;99.90
612;DHT22;293;53.888;11.464;2023-04-30T01:11:27;7.00;99.90
612;DHT22;293;53.888;11.464;2023-04-30T01:14:03;7.00;99.90
612;DHT22;293;53.888;11.464;2023-04-30T01:16:38;7.00;99.90
612;DHT22;293;53.888;11.464;2023-04-30T01:19:09;6.90;99.90
612;DHT22;293;53.888;11.464;2023-04-30T01:21:38;6.90;99.90
612;DHT22;293;53.888;11.464;2023-04-30T01:24:23;7.00;99.90
612;DHT22;293;53.888;11.464;2023-04-30T01:27:04;7.00;99.90
612;DHT22;293;53.888;11.464;2023-04-30T01:29:34;6.90;99.90
612;DHT22;293;53.888;11.464;2023-04-30T01:32:02;6.90;99.90
612;DHT22;293;53.888;11.464;2023-04-30T01:34:28;6.90;99.90
612;DHT22;293;53.888;11.464;2023-04-30T01:37:05;6.90;99.90
612;DHT22;293;53.888;11.464;2023-04-30T01:39:54;6.90;99.90
612;DHT22;293;53.888;11.464;2023-04-30T01:42:29;6.90;99.90
612;DHT22;293;53.888;11.464;2023-04-30T01:45:17;6.90;99.90
612;DHT22;293;53.888;11.464;2023-04-30T01:47:50;6.90;99.90
612;DHT22;293;53.888;11.464;2023-04-30T01:50:24;6.90;99.90
612;DHT22;293;53.888;11.464;2023-04-30T01:52:58;6.90;99.90
612;DHT22;293;53.888;11.464;2023-04-30T01:55:29;6.90;99.90
612;DHT22;293;53.888;11.464;2023-04-30T01:58:02;6.90;99.90
612;DHT22;293;53.888;11.464;2023-04-30T02:00:32;6.90;99.90
612;DHT22;293;53.888;11.464;2023-04-30T02:05:27;6.90;99.90
612;DHT22;293;53.888;11.464;2023-04-30T02:07:53;6.90;99.90
612;DHT22;293;53.888;11.464;2023-04-30T02:10:23;6.90;99.90
612;DHT22;293;53.888;11.464;2023-04-30T02:12:50;6.90;99.90
612;DHT22;293;53.888;11.464;2023-04-30T02:15:17;6.80;99.90
612;DHT22;293;53.888;11.464;2023-04-30T02:17:45;6.80;99.90
612;DHT22;293;53.888;11.464;2023-04-30T02:20:12;6.80;99.90
612;DHT22;293;53.888;11.464;2023-04-30T02:22:39;6.80;99.90
612;DHT22;293;53.888;11.464;2023-04-30T02:25:06;6.80;99.90
612;DHT22;293;53.888;11.464;2023-04-30T02:27:33;6.80;99.90
612;DHT22;293;53.888;11.464;2023-04-30T02:30:00;6.80;99.90
612;DHT22;293;53.888;11.464;2023-04-30T02:32:27;6.90;99.90
612;DHT22;293;53.888;11.464;2023-04-30T02:34:55;6.90;99.90
612;DHT22;293;53.888;11.464;2023-04-30T02:37:22;6.80;99.90
612;DHT22;293;53.888;11.464;2023-04-30T02:39:50;6.80;99.90
612;DHT22;293;53.888;11.464;2023-04-30T02:42:17;6.80;99.90
612;DHT22;293;53.888;11.464;2023-04-30T02:44:44;6.80;99.90
612;DHT22;293;53.888;11.464;2023-04-30T02:47:11;6.80;99.90
612;DHT22;293;53.888;11.464;2023-04-30T02:49:38;6.70;99.90
612;DHT22;293;53.888;11.464;2023-04-30T02:52:06;6.70;99.90
612;DHT22;293;53.888;11.464;2023-04-30T02:54:34;6.70;99.90
612;DHT22;293;53.888;11.464;2023-04-30T02:57:01;6.70;99.70
612;DHT22;293;53.888;11.464;2023-04-30T02:59:28;6.60;99.40
612;DHT22;293;53.888;11.464;2023-04-30T03:01:55;6.70;98.50
612;DHT22;293;53.888;11.464;2023-04-30T03:04:22;6.60;97.50
612;DHT22;293;53.888;11.464;2023-04-30T03:06:48;6.60;97.50
612;DHT22;293;53.888;11.464;2023-04-30T03:09:17;6.60;97.70
612;DHT22;293;53.888;11.464;2023-04-30T03:11:43;6.60;97.60
612;DHT22;293;53.888;11.464;2023-04-30T03:14:10;6.60;97.80
612;DHT22;293;53.888;11.464;2023-04-30T03:16:37;6.60;98.40
612;DHT22;293;53.888;11.464;2023-04-30T03:19:04;6.50;98.70
612;DHT22;293;53.888;11.464;2023-04-30T03:21:31;6.50;99.90
612;DHT22;293;53.888;11.464;2023-04-30T03:23:58;6.30;99.90
612;DHT22;293;53.888;11.464;2023-04-30T03:26:26;6.30;99.90
612;DHT22;293;53.888;11.464;2023-04-30T03:28:53;6.20;99.90
612;DHT22;293;53.888;11.464;2023-04-30T03:31:20;6.10;99.90
612;DHT22;293;53.888;11.464;2023-04-30T03:33:47;6.10;99.90
612;DHT22;293;53.888;11.464;2023-04-30T03:36:14;6.10;99.90
612;DHT22;293;53.888;11.464;2023-04-30T03:38:41;6.00;99.90
612;DHT22;293;53.888;11.464;2023-04-30T03:41:08;5.90;99.90
612;DHT22;293;53.888;11.464;2023-04-30T03:43:36;5.90;99.90
612;DHT22;293;53.888;11.464;2023-04-30T03:46:03;5.80;99.90
612;DHT22;293;53.888;11.464;2023-04-30T03:48:30;5.90;99.90
612;DHT22;293;53.888;11.464;2023-04-30T03:50:57;5.90;99.90
612;DHT22;293;53.888;11.464;2023-04-30T03:53:24;5.90;99.90
612;DHT22;293;53.888;11.464;2023-04-30T03:55:52;5.80;99.90
612;DHT22;293;53.888;11.464;2023-04-30T03:58:19;5.80;99.90
612;DHT22;293;53.888;11.464;2023-04-30T04:00:48;5.80;99.90
612;DHT22;293;53.888;11.464;2023-04-30T04:03:15;5.80;99.90
612;DHT22;293;53.888;11.464;2023-04-30T04:05:42;5.80;99.90
612;DHT22;293;53.888;11.464;2023-04-30T04:08:09;5.90;99.90
612;DHT22;293;53.888;11.464;2023-04-30T04:10:36;6.00;99.90
612;DHT22;293;53.888;11.464;2023-04-30T04:13:04;6.00;99.90
612;DHT22;293;53.888;11.464;2023-04-30T04:15:31;6.00;99.90
612;DHT22;293;53.888;11.464;2023-04-30T04:17:59;5.90;99.90
612;DHT22;293;53.888;11.464;2023-04-30T04:20:26;5.90;99.90
612;DHT22;293;53.888;11.464;2023-04-30T04:22:54;5.90;99.90
612;DHT22;293;53.888;11.464;2023-04-30T04:25:21;5.90;99.90
612;DHT22;293;53.888;11.464;2023-04-30T04:27:49;6.00;99.90
612;DHT22;293;53.888;11.464;2023-04-30T04:30:16;6.00;99.90
612;DHT22;293;53.888;11.464;2023-04-30T04:32:43;6.00;99.90
612;DHT22;293;53.888;11.464;2023-04-30T04:35:14;6.00;99.90
612;DHT22;293;53.888;11.464;2023-04-30T04:37:41;6.10;99.90
612;DHT22;293;53.888;11.464;2023-04-30T04:40:09;6.20;99.90
612;DHT22;293;53.888;11.464;2023-04-30T04:42:36;6.20;99.90
612;DHT22;293;53.888;11.464;2023-04-30T04:45:04;6.30;99.90
612;DHT22;293;53.888;11.464;2023-04-30T04:47:32;6.30;99.90
612;DHT22;293;53.888;11.464;2023-04-30T04:49:59;6.40;99.90
612;DHT22;293;53.888;11.464;2023-04-30T04:52:27;6.40;99.90
612;DHT22;293;53.888;11.464;2023-04-30T04:54:54;6.50;99.90
612;DHT22;293;53.888;11.464;2023-04-30T04:57:21;6.40;99.90
612;DHT22;293;53.888;11.464;2023-04-30T05:03:10;6.40;99.90
612;DHT22;293;53.888;11.464;2023-04-30T05:05:36;6.60;99.90
612;DHT22;293;53.888;11.464;2023-04-30T05:08:05;7.10;99.90
612;DHT22;293;53.888;11.464;2023-04-30T05:10:31;8.50;99.90
612;DHT22;293;53.888;11.464;2023-04-30T05:12:59;9.50;99.90
612;DHT22;293;53.888;11.464;2023-04-30T05:15:26;10.20;99.90
612;DHT22;293;53.888;11.464;2023-04-30T05:17:53;10.40;99.60
612;DHT22;293;53.888;11.464;2023-04-30T05:20:20;10.20;98.50
612;DHT22;293;53.888;11.464;2023-04-30T05:22:46;10.30;98.80
612;DHT22;293;53.888;11.464;2023-04-30T05:25:15;11.00;99.30
612;DHT22;293;53.888;11.464;2023-04-30T05:27:41;11.90;97.40
612;DHT22;293;53.888;11.464;2023-04-30T05:30:09;13.10;97.20
612;DHT22;293;53.888;11.464;2023-04-30T05:32:36;14.70;94.40
612;DHT22;293;53.888;11.464;2023-04-30T05:35:04;15.20;91.30
612;DHT22;293;53.888;11.464;2023-04-30T05:37:31;14.60;90.10
612;DHT22;293;53.888;11.464;2023-04-30T05:39:57;13.80;90.00
612;DHT22;293;53.888;11.464;2023-04-30T05:42:26;12.80;90.90
612;DHT22;293;53.888;11.464;2023-04-30T05:44:53;12.10;91.90
612;DHT22;293;53.888;11.464;2023-04-30T05:47:20;11.70;92.50
612;DHT22;293;53.888;11.464;2023-04-30T05:49:47;11.30;93.20
612;DHT22;293;53.888;11.464;2023-04-30T05:52:14;11.80;94.90
612;DHT22;293;53.888;11.464;2023-04-30T05:54:42;13.40;94.20
612;DHT22;293;53.888;11.464;2023-04-30T05:57:08;15.00;92.60
612;DHT22;293;53.888;11.464;2023-04-30T05:59:37;16.30;90.40
612;DHT22;293;53.888;11.464;2023-04-30T06:02:04;17.10;86.30
612;DHT22;293;53.888;11.464;2023-04-30T06:06:58;18.50;81.00
612;DHT22;293;53.888;11.464;2023-04-30T06:09:25;19.00;79.30
612;DHT22;293;53.888;11.464;2023-04-30T06:11:52;19.30;77.30
612;DHT22;293;53.888;11.464;2023-04-30T06:14:20;19.70;73.30
612;DHT22;293;53.888;11.464;2023-04-30T06:16:49;19.70;73.90
612;DHT22;293;53.888;11.464;2023-04-30T06:19:15;20.10;73.80
612;DHT22;293;53.888;11.464;2023-04-30T06:21:43;20.30;70.10
612;DHT22;293;53.888;11.464;2023-04-30T06:24:09;20.50;68.90
612;DHT22;293;53.888;11.464;2023-04-30T06:26:36;20.30;67.00
612;DHT22;293;53.888;11.464;2023-04-30T06:29:03;20.40;68.10
612;DHT22;293;53.888;11.464;2023-04-30T06:31:30;20.70;66.50
612;DHT22;293;53.888;11.464;2023-04-30T06:33:58;20.50;66.00
612;DHT22;293;53.888;11.464;2023-04-30T06:36:25;19.60;66.80
612;DHT22;293;53.888;11.464;2023-04-30T06:38:52;18.80;68.20
612;DHT22;293;53.888;11.464;2023-04-30T06:41:19;17.80;69.30
612;DHT22;293;53.888;11.464;2023-04-30T06:43:46;16.90;70.10
612;DHT22;293;53.888;11.464;2023-04-30T06:46:13;15.90;72.10
612;DHT22;293;53.888;11.464;2023-04-30T06:48:41;14.80;72.90
612;DHT22;293;53.888;11.464;2023-04-30T06:51:09;14.30;75.60
612;DHT22;293;53.888;11.464;2023-04-30T06:53:36;13.60;77.40
612;DHT22;293;53.888;11.464;2023-04-30T06:56:03;13.10;78.90
612;DHT22;293;53.888;11.464;2023-04-30T06:58:30;12.50;78.90
612;DHT22;293;53.888;11.464;2023-04-30T07:00:57;11.80;81.50
612;DHT22;293;53.888;11.464;2023-04-30T07:03:24;11.40;83.00
612;DHT22;293;53.888;11.464;2023-04-30T07:05:51;11.20;83.40
612;DHT22;293;53.888;11.464;2023-04-30T07:08:20;11.00;83.40
612;DHT22;293;53.888;11.464;2023-04-30T07:10:47;11.00;85.20
612;DHT22;293;53.888;11.464;2023-04-30T07:13:15;10.70;86.60
612;DHT22;293;53.888;11.464;2023-04-30T07:15:42;10.70;87.20
612;DHT22;293;53.888;11.464;2023-04-30T07:18:09;10.70;87.20
612;DHT22;293;53.888;11.464;2023-04-30T07:20:35;10.70;87.70
612;DHT22;293;53.888;11.464;2023-04-30T07:23:02;10.80;87.50
612;DHT22;293;53.888;11.464;2023-04-30T07:25:31;10.70;87.30
612;DHT22;293;53.888;11.464;2023-04-30T07:27:58;11.30;88.90
612;DHT22;293;53.888;11.464;2023-04-30T07:30:24;10.60;88.50
612;DHT22;293;53.888;11.464;2023-04-30T07:32:51;10.40;87.80
612;DHT22;293;53.888;11.464;2023-04-30T07:35:18;10.40;88.20
612;DHT22;293;53.888;11.464;2023-04-30T07:37:45;10.20;88.50
612;DHT22;293;53.888;11.464;2023-04-30T07:40:12;9.80;90.80
612;DHT22;293;53.888;11.464;2023-04-30T07:42:40;10.10;90.40
612;DHT22;293;53.888;11.464;2023-04-30T07:45:08;10.10;90.70
612;DHT22;293;53.888;11.464;2023-04-30T07:47:35;10.20;91.20
612;DHT22;293;53.888;11.464;2023-04-30T07:50:02;10.30;91.10
612;DHT22;293;53.888;11.464;2023-04-30T07:52:29;10.20;90.90
612;DHT22;293;53.888;11.464;2023-04-30T07:54:56;10.20;91.00
612;DHT22;293;53.888;11.464;2023-04-30T07:57:23;10.30;91.40
612;DHT22;293;53.888;11.464;2023-04-30T07:59:52;10.20;91.00
612;DHT22;293;53.888;11.464;2023-04-30T08:02:19;10.20;91.60
612;DHT22;293;53.888;11.464;2023-04-30T08:04:46;10.30;91.40
612;DHT22;293;53.888;11.464;2023-04-30T08:07:13;10.30;91.10
612;DHT22;293;53.888;11.464;2023-04-30T08:09:41;10.40;90.50
612;DHT22;293;53.888;11.464;2023-04-30T08:12:08;10.40;91.30
612;DHT22;293;53.888;11.464;2023-04-30T08:14:35;10.30;91.60
612;DHT22;293;53.888;11.464;2023-04-30T08:17:03;10.30;91.70
612;DHT22;293;53.888;11.464;2023-04-30T08:19:30;10.20;91.60
612;DHT22;293;53.888;11.464;2023-04-30T08:21:57;10.30;91.70
612;DHT22;293;53.888;11.464;2023-04-30T08:24:24;10.20;91.80
612;DHT22;293;53.888;11.464;2023-04-30T08:26:51;10.30;92.20
612;DHT22;293;53.888;11.464;2023-04-30T08:29:18;10.20;92.50
612;DHT22;293;53.888;11.464;2023-04-30T08:31:45;10.20;92.10
612;DHT22;293;53.888;11.464;2023-04-30T08:34:13;10.30;91.80
612;DHT22;293;53.888;11.464;2023-04-30T08:36:40;10.30;91.00
612;DHT22;293;53.888;11.464;2023-04-30T08:39:07;10.30;91.00
612;DHT22;293;53.888;11.464;2023-04-30T08:41:34;10.30;91.00
612;DHT22;293;53.888;11.464;2023-04-30T08:44:02;10.40;91.20
612;DHT22;293;53.888;11.464;2023-04-30T08:46:31;10.60;90.10
612;DHT22;293;53.888;11.464;2023-04-30T08:48:57;10.90;90.00
612;DHT22;293;53.888;11.464;2023-04-30T08:51:26;11.20;90.00
612;DHT22;293;53.888;11.464;2023-04-30T08:53:54;11.20;89.20
612;DHT22;293;53.888;11.464;2023-04-30T08:56:22;11.20;88.70
612;DHT22;293;53.888;11.464;2023-04-30T08:58:49;11.20;89.20
612;DHT22;293;53.888;11.464;2023-04-30T09:01:16;11.30;89.40
612;DHT22;293;53.888;11.464;2023-04-30T09:03:44;11.30;88.30
612;DHT22;293;53.888;11.464;2023-04-30T09:06:14;11.50;88.40
612;DHT22;293;53.888;11.464;2023-04-30T09:08:43;11.60;89.10
612;DHT22;293;53.888;11.464;2023-04-30T09:11:24;11.80;88.50
612;DHT22;293;53.888;11.464;2023-04-30T09:13:53;11.80;87.40
612;DHT22;293;53.888;11.464;2023-04-30T09:16:20;11.90;87.50
612;DHT22;293;53.888;11.464;2023-04-30T09:18:47;12.00;88.10
612;DHT22;293;53.888;11.464;2023-04-30T09:21:15;12.10;86.80
612;DHT22;293;53.888;11.464;2023-04-30T09:23:55;12.10;87.00
612;DHT22;293;53.888;11.464;2023-04-30T09:26:26;12.00;85.80
612;DHT22;293;53.888;11.464;2023-04-30T09:28:55;11.80;85.80
612;DHT22;293;53.888;11.464;2023-04-30T09:31:23;11.50;86.00
612;DHT22;293;53.888;11.464;2023-04-30T09:33:51;11.40;86.60
612;DHT22;293;53.888;11.464;2023-04-30T09:36:18;11.20;87.00
612;DHT22;293;53.888;11.464;2023-04-30T09:38:45;11.20;88.30
612;DHT22;293;53.888;11.464;2023-04-30T09:41:23;11.30;87.30
612;DHT22;293;53.888;11.464;2023-04-30T09:43:51;11.40;86.80
612;DHT22;293;53.888;11.464;2023-04-30T09:46:18;11.30;88.50
612;DHT22;293;53.888;11.464;2023-04-30T09:48:46;11.30;89.00
612;DHT22;293;53.888;11.464;2023-04-30T09:51:14;11.30;87.60
612;DHT22;293;53.888;11.464;2023-04-30T09:53:42;11.40;86.80
612;DHT22;293;53.888;11.464;2023-04-30T09:56:11;11.30;85.80
612;DHT22;293;53.888;11.464;2023-04-30T09:58:43;11.20;85.70
612;DHT22;293;53.888;11.464;2023-04-30T10:01:11;11.30;86.80
612;DHT22;293;53.888;11.464;2023-04-30T10:03:39;11.20;86.70
612;DHT22;293;53.888;11.464;2023-04-30T10:06:11;11.30;85.80
612;DHT22;293;53.888;11.464;2023-04-30T10:08:40;11.10;85.00
612;DHT22;293;53.888;11.464;2023-04-30T10:11:08;11.10;85.10
612;DHT22;293;53.888;11.464;2023-04-30T10:13:44;11.00;85.00
612;DHT22;293;53.888;11.464;2023-04-30T10:16:14;11.00;85.90
612;DHT22;293;53.888;11.464;2023-04-30T10:18:49;10.90;85.50
612;DHT22;293;53.888;11.464;2023-04-30T10:21:21;10.70;84.80
612;DHT22;293;53.888;11.464;2023-04-30T10:23:48;10.70;86.50
612;DHT22;293;53.888;11.464;2023-04-30T10:26:16;10.60;86.50
612;DHT22;293;53.888;11.464;2023-04-30T10:28:46;10.40;86.90
612;DHT22;293;53.888;11.464;2023-04-30T10:31:16;10.40;87.10
612;DHT22;293;53.888;11.464;2023-04-30T10:33:47;10.50;88.00
612;DHT22;293;53.888;11.464;2023-04-30T10:36:25;10.40;87.80
612;DHT22;293;53.888;11.464;2023-04-30T10:38:56;10.40;88.30
612;DHT22;293;53.888;11.464;2023-04-30T10:41:25;10.30;89.20
612;DHT22;293;53.888;11.464;2023-04-30T10:43:56;10.40;87.90
612;DHT22;293;53.888;11.464;2023-04-30T10:46:24;10.50;87.10
612;DHT22;293;53.888;11.464;2023-04-30T10:48:52;10.40;88.40
612;DHT22;293;53.888;11.464;2023-04-30T10:51:21;10.40;88.30
612;DHT22;293;53.888;11.464;2023-04-30T10:53:49;10.40;88.80
612;DHT22;293;53.888;11.464;2023-04-30T10:56:30;10.50;89.40
612;DHT22;293;53.888;11.464;2023-04-30T10:59:01;10.40;89.20
612;DHT22;293;53.888;11.464;2023-04-30T11:01:28;10.40;88.90
612;DHT22;293;53.888;11.464;2023-04-30T11:04:06;10.40;89.30
612;DHT22;293;53.888;11.464;2023-04-30T11:06:53;10.40;89.40
612;DHT22;293;53.888;11.464;2023-04-30T11:09:38;10.40;89.10
612;DHT22;293;53.888;11.464;2023-04-30T11:12:10;10.40;87.10
612;DHT22;293;53.888;11.464;2023-04-30T11:14:41;10.40;86.70
612;DHT22;293;53.888;11.464;2023-04-30T11:17:09;10.40;86.20
612;DHT22;293;53.888;11.464;2023-04-30T11:19:45;10.40;86.80
612;DHT22;293;53.888;11.464;2023-04-30T11:22:18;10.30;87.40
612;DHT22;293;53.888;11.464;2023-04-30T11:25:02;10.40;88.30
612;DHT22;293;53.888;11.464;2023-04-30T11:27:30;10.40;86.30
612;DHT22;293;53.888;11.464;2023-04-30T11:30:00;10.40;88.20
612;DHT22;293;53.888;11.464;2023-04-30T11:32:32;10.20;86.90
612;DHT22;293;53.888;11.464;2023-04-30T11:35:00;10.30;88.50
612;DHT22;293;53.888;11.464;2023-04-30T11:37:33;8.70;85.80
612;DHT22;293;53.888;11.464;2023-04-30T11:40:02;10.10;87.30
612;DHT22;293;53.888;11.464;2023-04-30T11:42:30;10.10;87.10
612;DHT22;293;53.888;11.464;2023-04-30T11:45:04;10.20;87.60
612;DHT22;293;53.888;11.464;2023-04-30T11:47:39;10.20;88.50
612;DHT22;293;53.888;11.464;2023-04-30T11:50:07;10.30;87.60
612;DHT22;293;53.888;11.464;2023-04-30T11:52:34;10.30;88.50
612;DHT22;293;53.888;11.464;2023-04-30T11:55:04;10.50;87.20
612;DHT22;293;53.888;11.464;2023-04-30T11:57:38;10.50;86.20
612;DHT22;293;53.888;11.464;2023-04-30T12:00:14;10.60;86.50
612;DHT22;293;53.888;11.464;2023-04-30T12:02:41;10.50;86.00
612;DHT22;293;53.888;11.464;2023-04-30T12:05:13;10.50;86.90
612;DHT22;293;53.888;11.464;2023-04-30T12:07:46;10.40;86.00
612;DHT22;293;53.888;11.464;2023-04-30T12:10:13;10.40;85.90
612;DHT22;293;53.888;11.464;2023-04-30T12:12:42;10.40;86.40
612;DHT22;293;53.888;11.464;2023-04-30T12:15:17;10.50;87.00
612;DHT22;293;53.888;11.464;2023-04-30T12:17:45;10.50;88.40
612;DHT22;293;53.888;11.464;2023-04-30T12:20:13;10.40;87.00
612;DHT22;293;53.888;11.464;2023-04-30T12:22:41;10.30;87.90
612;DHT22;293;53.888;11.464;2023-04-30T12:25:11;10.40;89.60
612;DHT22;293;53.888;11.464;2023-04-30T12:27:40;10.50;90.20
612;DHT22;293;53.888;11.464;2023-04-30T12:30:08;10.60;89.50
612;DHT22;293;53.888;11.464;2023-04-30T12:32:40;10.70;88.30
612;DHT22;293;53.888;11.464;2023-04-30T12:35:12;10.70;88.30
612;DHT22;293;53.888;11.464;2023-04-30T12:37:41;10.70;88.80
612;DHT22;293;53.888;11.464;2023-04-30T12:40:10;10.60;88.10
612;DHT22;293;53.888;11.464;2023-04-30T12:42:37;10.50;90.00
612;DHT22;293;53.888;11.464;2023-04-30T12:45:05;10.40;89.90
612;DHT22;293;53.888;11.464;2023-04-30T12:47:32;10.40;90.00
612;DHT22;293;53.888;11.464;2023-04-30T12:50:08;10.50;88.50
612;DHT22;293;53.888;11.464;2023-04-30T12:52:36;10.50;88.40
612;DHT22;293;53.888;11.464;2023-04-30T12:55:17;10.60;88.40
612;DHT22;293;53.888;11.464;2023-04-30T12:58:06;10.60;88.80
612;DHT22;293;53.888;11.464;2023-04-30T13:00:47;10.70;89.10
612;DHT22;293;53.888;11.464;2023-04-30T13:03:16;10.60;89.10
612;DHT22;293;53.888;11.464;2023-04-30T13:05:48;10.60;89.10
612;DHT22;293;53.888;11.464;2023-04-30T13:08:15;10.60;89.60
612;DHT22;293;53.888;11.464;2023-04-30T13:10:43;10.70;89.00
612;DHT22;293;53.888;11.464;2023-04-30T13:13:10;10.60;90.00
612;DHT22;293;53.888;11.464;2023-04-30T13:15:37;10.80;89.10
612;DHT22;293;53.888;11.464;2023-04-30T13:18:04;10.80;87.70
612;DHT22;293;53.888;11.464;2023-04-30T13:20:33;10.80;86.70
612;DHT22;293;53.888;11.464;2023-04-30T13:23:01;10.80;86.90
612;DHT22;293;53.888;11.464;2023-04-30T13:25:28;10.70;87.10
612;DHT22;293;53.888;11.464;2023-04-30T13:27:55;10.70;86.80
612;DHT22;293;53.888;11.464;2023-04-30T13:30:22;10.80;86.60
612;DHT22;293;53.888;11.464;2023-04-30T13:32:49;10.80;86.80
612;DHT22;293;53.888;11.464;2023-04-30T13:35:17;10.80;87.70
612;DHT22;293;53.888;11.464;2023-04-30T13:37:44;10.70;88.50
612;DHT22;293;53.888;11.464;2023-04-30T13:40:14;10.80;88.70
612;DHT22;293;53.888;11.464;2023-04-30T13:42:41;10.80;88.90
612;DHT22;293;53.888;11.464;2023-04-30T13:45:09;10.80;88.80
612;DHT22;293;53.888;11.464;2023-04-30T13:47:36;10.80;88.50
612;DHT22;293;53.888;11.464;2023-04-30T13:50:04;10.90;88.10
612;DHT22;293;53.888;11.464;2023-04-30T13:52:31;10.80;88.20
612;DHT22;293;53.888;11.464;2023-04-30T13:54:58;10.90;88.20
612;DHT22;293;53.888;11.464;2023-04-30T13:57:26;11.00;87.80
612;DHT22;293;53.888;11.464;2023-04-30T13:59:54;11.00;88.30
612;DHT22;293;53.888;11.464;2023-04-30T14:02:21;11.10;87.80
612;DHT22;293;53.888;11.464;2023-04-30T14:04:48;11.00;88.40
612;DHT22;293;53.888;11.464;2023-04-30T14:07:15;11.00;89.80
612;DHT22;293;53.888;11.464;2023-04-30T14:09:41;11.00;88.80
612;DHT22;293;53.888;11.464;2023-04-30T14:12:08;11.10;88.50
612;DHT22;293;53.888;11.464;2023-04-30T14:14:36;11.10;88.70
612;DHT22;293;53.888;11.464;2023-04-30T14:17:03;11.20;87.80
612;DHT22;293;53.888;11.464;2023-04-30T14:19:30;11.10;87.40
612;DHT22;293;53.888;11.464;2023-04-30T14:21:57;11.20;87.70
612;DHT22;293;53.888;11.464;2023-04-30T14:24:24;11.30;86.90
612;DHT22;293;53.888;11.464;2023-04-30T14:26:52;11.30;85.80
612;DHT22;293;53.888;11.464;2023-04-30T14:29:19;11.20;85.80
612;DHT22;293;53.888;11.464;2023-04-30T14:31:47;11.30;86.10
612;DHT22;293;53.888;11.464;2023-04-30T14:34:14;11.30;86.90
612;DHT22;293;53.888;11.464;2023-04-30T14:36:41;11.40;86.80
612;DHT22;293;53.888;11.464;2023-04-30T14:39:08;11.40;87.20
612;DHT22;293;53.888;11.464;2023-04-30T14:41:35;11.30;86.60
612;DHT22;293;53.888;11.464;2023-04-30T14:44:03;11.30;87.10
612;DHT22;293;53.888;11.464;2023-04-30T14:46:30;11.30;87.20
612;DHT22;293;53.888;11.464;2023-04-30T14:48:59;11.40;86.90
612;DHT22;293;53.888;11.464;2023-04-30T14:51:26;11.40;86.80
612;DHT22;293;53.888;11.464;2023-04-30T14:53:53;11.30;88.40
612;DHT22;293;53.888;11.464;2023-04-30T14:56:20;11.30;88.00
612;DHT22;293;53.888;11.464;2023-04-30T14:58:49;11.20;88.30
612;DHT22;293;53.888;11.464;2023-04-30T15:01:16;11.40;87.80
612;DHT22;293;53.888;11.464;2023-04-30T15:03:43;11.50;87.10
612;DHT22;293;53.888;11.464;2023-04-30T15:06:12;11.50;87.80
612;DHT22;293;53.888;11.464;2023-04-30T15:08:38;11.50;92.80
612;DHT22;293;53.888;11.464;2023-04-30T15:11:06;11.50;91.20
612;DHT22;293;53.888;11.464;2023-04-30T15:13:34;11.50;90.60
612;DHT22;293;53.888;11.464;2023-04-30T15:16:01;11.50;90.30
612;DHT22;293;53.888;11.464;2023-04-30T15:18:28;11.50;90.00
612;DHT22;293;53.888;11.464;2023-04-30T15:20:55;11.60;88.80
612;DHT22;293;53.888;11.464;2023-04-30T15:23:23;11.70;89.40
612;DHT22;293;53.888;11.464;2023-04-30T15:25:50;11.60;90.00
612;DHT22;293;53.888;11.464;2023-04-30T15:28:18;11.70;89.20
612;DHT22;293;53.888;11.464;2023-04-30T15:30:45;11.60;89.80
612;DHT22;293;53.888;11.464;2023-04-30T15:33:12;11.60;89.80
612;DHT22;293;53.888;11.464;2023-04-30T15:35:39;11.60;89.40
612;DHT22;293;53.888;11.464;2023-04-30T15:38:06;11.70;89.60
612;DHT22;293;53.888;11.464;2023-04-30T15:40:35;11.60;89.20
612;DHT22;293;53.888;11.464;2023-04-30T15:43:03;11.60;88.70
612;DHT22;293;53.888;11.464;2023-04-30T15:45:30;11.60;89.60
612;DHT22;293;53.888;11.464;2023-04-30T15:47:58;11.60;89.10
612;DHT22;293;53.888;11.464;2023-04-30T15:50:26;11.60;90.00
612;DHT22;293;53.888;11.464;2023-04-30T15:52:53;11.60;88.90
612;DHT22;293;53.888;11.464;2023-04-30T15:55:20;11.60;89.10
612;DHT22;293;53.888;11.464;2023-04-30T15:57:49;11.50;88.40
612;DHT22;293;53.888;11.464;2023-04-30T16:00:16;11.50;88.20
612;DHT22;293;53.888;11.464;2023-04-30T16:02:43;11.40;89.70
612;DHT22;293;53.888;11.464;2023-04-30T16:05:10;11.40;88.90
612;DHT22;293;53.888;11.464;2023-04-30T16:07:37;11.40;88.60
612;DHT22;293;53.888;11.464;2023-04-30T16:10:06;11.40;88.40
612;DHT22;293;53.888;11.464;2023-04-30T16:12:34;11.50;87.90
612;DHT22;293;53.888;11.464;2023-04-30T16:15:02;11.50;87.40
612;DHT22;293;53.888;11.464;2023-04-30T16:17:31;11.60;87.80
612;DHT22;293;53.888;11.464;2023-04-30T16:19:58;11.60;88.00
612;DHT22;293;53.888;11.464;2023-04-30T16:22:26;11.60;87.40
612;DHT22;293;53.888;11.464;2023-04-30T16:24:54;11.60;87.80
612;DHT22;293;53.888;11.464;2023-04-30T16:27:21;11.60;88.30
612;DHT22;293;53.888;11.464;2023-04-30T16:29:48;11.70;86.80
612;DHT22;293;53.888;11.464;2023-04-30T16:32:16;11.70;86.40
612;DHT22;293;53.888;11.464;2023-04-30T16:34:43;11.80;86.40
612;DHT22;293;53.888;11.464;2023-04-30T16:37:10;11.80;86.40